• Join FlightAware (Why Join?)
  • Login
  • US Flag 
06:15AM EST


 

Airport Tracker/Info


-or-


 

Live Flight TrackerFlight Track Log ✈ N2320M ✈ 10-Aug-2013 ✈ KBUF - KLPR

Flight Track Log - Related Links

Times and Time Zones

All times are in EDT time to prevent confusion due to time zone crossing. See the N2320M flight status page for this flight to view local times or setup timezone preferences in your user account.

Time Position Orientation Groundspeed Altitude Reporting Facility
EDT Latitude Longitude Course Direction KTS MPH feet Rate Location/Type
09:44PM 42.9333 -78.7333 228° Southwest 102 117 1,100  Level Buffalo TRACON
09:45PM 42.9000 -78.7833 228° Southwest 109 125 2,400 960 Climbing Buffalo TRACON
09:46PM 42.9000 -78.8167 270° West 110 127 3,200 780 Climbing Buffalo TRACON
09:47PM 42.8833 -78.8500 236° Southwest 127 146 4,000 360 Climbing Buffalo TRACON
09:48PM 42.8500 -78.9000 228° Southwest 149 171 4,000  Level Buffalo TRACON
09:49PM 42.8333 -78.9500 246° West 148 170 4,000  Level Buffalo TRACON
09:50PM 42.8167 -79.0000 246° West 143 165 4,000  Level Buffalo TRACON
09:51PM 42.8000 -79.0333 236° Southwest 142 163 4,000  Level Buffalo TRACON
09:52PM 42.7667 -79.0833 228° Southwest 142 163 4,000  Level Buffalo TRACON
09:53PM 42.7333 -79.1167 216° Southwest 143 165 4,000  Level Buffalo TRACON
09:54PM 42.7167 -79.1667 246° West 144 166 4,000  Level Buffalo TRACON
09:56PM 42.6839 -79.2089 224° Southwest  Level FlightAware Approximate
10:03PM 42.4747 -79.4819 233° Southwest  Level FlightAware Approximate
10:04PM 42.4498 -79.5261 233° Southwest  Level FlightAware Approximate
10:05PM 42.4249 -79.5702 233° Southwest  Level FlightAware Approximate
10:06PM 42.3999 -79.6143 233° Southwest  Level FlightAware Approximate
10:07PM 42.3750 -79.6583 233° Southwest  Level FlightAware Approximate
10:08PM 42.3500 -79.7023 232° Southwest  Level FlightAware Approximate
10:09PM 42.3250 -79.7463 232° Southwest  Level FlightAware Approximate
10:10PM 42.3007 -79.7890 232° Southwest  Level FlightAware Approximate
10:11PM 42.2763 -79.8317 232° Southwest  Level FlightAware Approximate
10:12PM 42.2519 -79.8744 232° Southwest  Level FlightAware Approximate
10:13PM 42.2276 -79.9170 232° Southwest  Level FlightAware Approximate
10:14PM 42.2032 -79.9596 232° Southwest  Level FlightAware Approximate
10:15PM 42.1787 -80.0022 232° Southwest  Level FlightAware Approximate
10:16PM 42.1543 -80.0447 232° Southwest  Level FlightAware Approximate
10:17PM 42.1299 -80.0872 232° Southwest  Level FlightAware Approximate
10:18PM 42.1054 -80.1297 232° Southwest  Level FlightAware Approximate
10:19PM 42.0809 -80.1722 232° Southwest  Level FlightAware Approximate
10:20PM 42.0564 -80.2146 232° Southwest  Level FlightAware Approximate
10:21PM 42.0319 -80.2570 232° Southwest  Level FlightAware Approximate
10:22PM 42.0098 -80.3014 243° Southwest  Level FlightAware Approximate
10:23PM 41.9917 -80.3492 243° Southwest  Level FlightAware Approximate
10:24PM 41.9736 -80.3969 243° Southwest  Level FlightAware Approximate
10:25PM 41.9554 -80.4447 243° Southwest  Level FlightAware Approximate
10:26PM 41.9372 -80.4924 243° Southwest  Level FlightAware Approximate
10:27PM 41.9190 -80.5401 243° Southwest  Level FlightAware Approximate
10:28PM 41.9008 -80.5878 243° Southwest  Level FlightAware Approximate
10:29PM 41.8826 -80.6355 246° West  Level FlightAware Approximate
10:30PM 41.8664 -80.6844 246° West  Level FlightAware Approximate
10:30PM 41.9117 -80.8147 246° West 148 170 4,000  Level Cleveland Center
10:31PM 41.8502 -80.7333 246° West  Level FlightAware Approximate
10:31PM 41.8931 -80.8592 241° Southwest 147 169 4,000  Level Cleveland Center
10:32PM 41.8339 -80.7822 246° West  Level FlightAware Approximate
10:32PM 41.8742 -80.9067 242° Southwest 149 171 4,000  Level Cleveland Center
10:33PM 41.8176 -80.8311 246° West  Level FlightAware Approximate
10:33PM 41.8531 -80.9539 239° Southwest 147 169 4,000  Level Cleveland Center
10:34PM 41.8013 -80.8799 246° West  Level FlightAware Approximate
10:34PM 41.8342 -81.0011 242° Southwest 146 168 4,100  Level Cleveland Center
10:35PM 41.7850 -80.9287 246° West  Level FlightAware Approximate
10:35PM 41.8131 -81.0511 240° Southwest 148 170 4,100  Level Cleveland Center
10:36PM 41.7686 -80.9775 246° West  Level FlightAware Approximate
10:36PM 41.7961 -81.1011 246° West 148 170 4,000  Level Cleveland Center
10:37PM 41.7750 -81.1511 240° Southwest 148 170 4,000  Level Cleveland Center
10:38PM 41.7561 -81.1900 237° Southwest 150 173 4,000  Level Cleveland Center
10:39PM 41.7372 -81.2397 243° Southwest 150 173 4,000  Level Cleveland Center
10:40PM 41.7139 -81.2897 238° Southwest 147 169 4,000  Level Cleveland Center
10:41PM 41.6947 -81.3422 244° Southwest 151 174 4,000  Level Cleveland Center
10:42PM 41.6736 -81.3892 239° Southwest 151 174 4,000  Level Cleveland Center
10:43PM 41.6544 -81.4392 243° Southwest 150 173 4,000  Level Cleveland Center
10:44PM 41.6333 -81.4861 239° Southwest 150 173 4,000  Level Cleveland Center
10:45PM 41.6142 -81.5358 243° Southwest 150 173 4,000  Level Cleveland Center
10:46PM 41.5928 -81.5825 239° Southwest 149 171 4,000  Level Cleveland Center
10:47PM 41.5736 -81.6322 243° Southwest 150 173 4,000  Level Cleveland Center
10:48PM 41.5503 -81.6847 239° Southwest 152 175 4,000  Level Cleveland Center
10:49PM 41.5311 -81.7369 244° Southwest 153 176 4,000  Level Cleveland Center
10:50PM 41.5097 -81.7867 240° Southwest 152 175 4,000  Level Cleveland Center
10:51PM 41.4903 -81.8333 241° Southwest 152 175 4,000  Level Cleveland Center
10:52PM 41.4711 -81.8800 241° Southwest 153 176 4,000  Level Cleveland Center
10:53PM 41.4475 -81.9322 239° Southwest 151 174 4,000  Level Cleveland Center